sensor_id;sensor_type;location;lat;lon;timestamp;temperature;humidity
23124;DHT22;11731;48.592;8.858;2022-09-09T00:00:19;18.10;99.90
23124;DHT22;11731;48.592;8.858;2022-09-09T00:02:53;18.00;99.90
23124;DHT22;11731;48.592;8.858;2022-09-09T00:05:28;17.50;99.90
23124;DHT22;11731;48.592;8.858;2022-09-09T00:07:59;17.30;99.90
23124;DHT22;11731;48.592;8.858;2022-09-09T00:10:32;17.60;99.90
23124;DHT22;11731;48.592;8.858;2022-09-09T00:13:06;17.80;99.90
23124;DHT22;11731;48.592;8.858;2022-09-09T00:15:40;18.00;99.90
23124;DHT22;11731;48.592;8.858;2022-09-09T00:18:17;18.00;99.90
23124;DHT22;11731;48.592;8.858;2022-09-09T00:20:52;18.00;99.90
23124;DHT22;11731;48.592;8.858;2022-09-09T00:23:24;18.20;99.90
23124;DHT22;11731;48.592;8.858;2022-09-09T00:26:02;18.20;99.90
23124;DHT22;11731;48.592;8.858;2022-09-09T00:28:35;18.30;99.90
23124;DHT22;11731;48.592;8.858;2022-09-09T00:31:12;18.50;99.90
23124;DHT22;11731;48.592;8.858;2022-09-09T00:33:39;18.50;99.90
23124;DHT22;11731;48.592;8.858;2022-09-09T00:36:12;18.50;99.90
23124;DHT22;11731;48.592;8.858;2022-09-09T00:38:43;18.60;99.90
23124;DHT22;11731;48.592;8.858;2022-09-09T00:41:19;18.70;99.90
23124;DHT22;11731;48.592;8.858;2022-09-09T00:43:55;18.80;99.90
23124;DHT22;11731;48.592;8.858;2022-09-09T00:46:46;18.80;99.90
23124;DHT22;11731;48.592;8.858;2022-09-09T00:49:26;18.80;99.90
23124;DHT22;11731;48.592;8.858;2022-09-09T00:52:04;18.80;99.90
23124;DHT22;11731;48.592;8.858;2022-09-09T00:54:43;18.80;99.90
23124;DHT22;11731;48.592;8.858;2022-09-09T00:57:25;18.70;99.90
23124;DHT22;11731;48.592;8.858;2022-09-09T01:00:17;18.40;99.90
23124;DHT22;11731;48.592;8.858;2022-09-09T01:02:51;18.00;99.90
23124;DHT22;11731;48.592;8.858;2022-09-09T01:05:23;17.60;99.90
23124;DHT22;11731;48.592;8.858;2022-09-09T01:07:53;17.80;99.90
23124;DHT22;11731;48.592;8.858;2022-09-09T01:10:26;17.80;99.90
23124;DHT22;11731;48.592;8.858;2022-09-09T01:12:59;17.90;99.90
23124;DHT22;11731;48.592;8.858;2022-09-09T01:15:31;17.90;99.90
23124;DHT22;11731;48.592;8.858;2022-09-09T01:18:03;18.00;99.90
23124;DHT22;11731;48.592;8.858;2022-09-09T01:20:37;18.10;99.90
23124;DHT22;11731;48.592;8.858;2022-09-09T01:23:31;18.00;99.90
23124;DHT22;11731;48.592;8.858;2022-09-09T01:26:15;17.50;99.90
23124;DHT22;11731;48.592;8.858;2022-09-09T01:28:46;17.90;99.90
23124;DHT22;11731;48.592;8.858;2022-09-09T01:31:17;17.90;99.90
23124;DHT22;11731;48.592;8.858;2022-09-09T01:33:44;17.80;99.90
23124;DHT22;11731;48.592;8.858;2022-09-09T01:36:15;18.00;99.90
23124;DHT22;11731;48.592;8.858;2022-09-09T01:38:44;18.20;99.90
23124;DHT22;11731;48.592;8.858;2022-09-09T01:41:12;18.10;99.90
23124;DHT22;11731;48.592;8.858;2022-09-09T01:43:39;18.10;99.90
23124;DHT22;11731;48.592;8.858;2022-09-09T01:46:06;18.00;99.90
23124;DHT22;11731;48.592;8.858;2022-09-09T01:48:33;18.10;99.90
23124;DHT22;11731;48.592;8.858;2022-09-09T01:51:00;18.00;99.90
23124;DHT22;11731;48.592;8.858;2022-09-09T01:53:27;18.00;99.90
23124;DHT22;11731;48.592;8.858;2022-09-09T01:56:02;17.80;99.90
23124;DHT22;11731;48.592;8.858;2022-09-09T01:58:43;17.40;99.90
23124;DHT22;11731;48.592;8.858;2022-09-09T02:01:21;17.60;99.90
23124;DHT22;11731;48.592;8.858;2022-09-09T02:03:53;17.90;99.90
23124;DHT22;11731;48.592;8.858;2022-09-09T02:06:28;18.00;99.90
23124;DHT22;11731;48.592;8.858;2022-09-09T02:08:57;17.70;99.90
23124;DHT22;11731;48.592;8.858;2022-09-09T02:11:27;17.40;99.90
23124;DHT22;11731;48.592;8.858;2022-09-09T02:13:59;17.30;99.90
23124;DHT22;11731;48.592;8.858;2022-09-09T02:16:30;17.40;99.90
23124;DHT22;11731;48.592;8.858;2022-09-09T02:19:01;17.40;99.90
23124;DHT22;11731;48.592;8.858;2022-09-09T02:21:31;16.90;99.90
23124;DHT22;11731;48.592;8.858;2022-09-09T02:24:03;16.80;99.90
23124;DHT22;11731;48.592;8.858;2022-09-09T02:26:31;16.80;99.90
23124;DHT22;11731;48.592;8.858;2022-09-09T02:29:05;17.10;99.90
23124;DHT22;11731;48.592;8.858;2022-09-09T02:31:34;17.20;99.90
23124;DHT22;11731;48.592;8.858;2022-09-09T02:34:04;17.40;99.90
23124;DHT22;11731;48.592;8.858;2022-09-09T02:36:33;17.30;99.90
23124;DHT22;11731;48.592;8.858;2022-09-09T02:39:02;17.40;99.90
23124;DHT22;11731;48.592;8.858;2022-09-09T02:41:32;17.50;99.90
23124;DHT22;11731;48.592;8.858;2022-09-09T02:44:02;17.60;99.90
23124;DHT22;11731;48.592;8.858;2022-09-09T02:46:41;17.60;99.90
23124;DHT22;11731;48.592;8.858;2022-09-09T02:49:18;17.50;99.90
23124;DHT22;11731;48.592;8.858;2022-09-09T02:51:53;17.60;99.90
23124;DHT22;11731;48.592;8.858;2022-09-09T02:54:26;17.50;99.90
23124;DHT22;11731;48.592;8.858;2022-09-09T02:56:58;17.60;99.90
23124;DHT22;11731;48.592;8.858;2022-09-09T02:59:30;17.60;99.90
23124;DHT22;11731;48.592;8.858;2022-09-09T03:01:57;17.60;99.90
23124;DHT22;11731;48.592;8.858;2022-09-09T03:04:24;17.70;99.90
23124;DHT22;11731;48.592;8.858;2022-09-09T03:06:51;17.70;99.90
23124;DHT22;11731;48.592;8.858;2022-09-09T03:09:18;17.70;99.90
23124;DHT22;11731;48.592;8.858;2022-09-09T03:11:44;17.60;99.90
23124;DHT22;11731;48.592;8.858;2022-09-09T03:14:11;17.60;99.90
23124;DHT22;11731;48.592;8.858;2022-09-09T03:16:39;17.50;99.90
23124;DHT22;11731;48.592;8.858;2022-09-09T03:19:07;17.30;99.90
23124;DHT22;11731;48.592;8.858;2022-09-09T03:21:35;16.90;99.90
23124;DHT22;11731;48.592;8.858;2022-09-09T03:24:02;16.70;99.90
23124;DHT22;11731;48.592;8.858;2022-09-09T03:26:30;16.50;99.90
23124;DHT22;11731;48.592;8.858;2022-09-09T03:28:57;16.50;99.90
23124;DHT22;11731;48.592;8.858;2022-09-09T03:31:26;16.60;99.90
23124;DHT22;11731;48.592;8.858;2022-09-09T03:33:57;16.70;99.90
23124;DHT22;11731;48.592;8.858;2022-09-09T03:36:24;16.80;99.90
23124;DHT22;11731;48.592;8.858;2022-09-09T03:38:52;16.80;99.90
23124;DHT22;11731;48.592;8.858;2022-09-09T03:41:19;16.70;99.90
23124;DHT22;11731;48.592;8.858;2022-09-09T03:43:47;16.90;99.90
23124;DHT22;11731;48.592;8.858;2022-09-09T03:46:14;16.90;99.90
23124;DHT22;11731;48.592;8.858;2022-09-09T03:48:41;17.00;99.90
23124;DHT22;11731;48.592;8.858;2022-09-09T03:51:09;17.10;99.90
23124;DHT22;11731;48.592;8.858;2022-09-09T03:53:36;17.10;99.90
23124;DHT22;11731;48.592;8.858;2022-09-09T03:56:05;17.00;99.90
23124;DHT22;11731;48.592;8.858;2022-09-09T03:58:32;17.00;99.90
23124;DHT22;11731;48.592;8.858;2022-09-09T04:01:01;17.00;99.90
23124;DHT22;11731;48.592;8.858;2022-09-09T04:03:28;16.80;99.90
23124;DHT22;11731;48.592;8.858;2022-09-09T04:05:56;16.70;99.90
23124;DHT22;11731;48.592;8.858;2022-09-09T04:08:25;16.70;99.90
23124;DHT22;11731;48.592;8.858;2022-09-09T04:10:53;16.80;99.90
23124;DHT22;11731;48.592;8.858;2022-09-09T04:13:22;16.80;99.90
23124;DHT22;11731;48.592;8.858;2022-09-09T04:15:51;16.90;99.90
23124;DHT22;11731;48.592;8.858;2022-09-09T04:18:19;16.90;99.90
23124;DHT22;11731;48.592;8.858;2022-09-09T04:20:46;16.80;99.90
23124;DHT22;11731;48.592;8.858;2022-09-09T04:23:14;16.80;99.90
23124;DHT22;11731;48.592;8.858;2022-09-09T04:25:45;16.90;99.90
23124;DHT22;11731;48.592;8.858;2022-09-09T04:28:12;16.60;99.90
23124;DHT22;11731;48.592;8.858;2022-09-09T04:30:39;16.20;99.90
23124;DHT22;11731;48.592;8.858;2022-09-09T04:33:06;16.30;99.90
23124;DHT22;11731;48.592;8.858;2022-09-09T04:35:33;16.50;99.90
23124;DHT22;11731;48.592;8.858;2022-09-09T04:38:00;16.70;99.90
23124;DHT22;11731;48.592;8.858;2022-09-09T04:40:29;16.90;99.90
23124;DHT22;11731;48.592;8.858;2022-09-09T04:42:57;17.10;99.90
23124;DHT22;11731;48.592;8.858;2022-09-09T04:45:24;16.80;99.90
23124;DHT22;11731;48.592;8.858;2022-09-09T04:47:51;16.50;99.90
23124;DHT22;11731;48.592;8.858;2022-09-09T04:50:18;16.40;99.90
23124;DHT22;11731;48.592;8.858;2022-09-09T04:52:45;16.30;99.90
23124;DHT22;11731;48.592;8.858;2022-09-09T04:55:12;16.40;99.90
23124;DHT22;11731;48.592;8.858;2022-09-09T04:57:39;16.50;99.90
23124;DHT22;11731;48.592;8.858;2022-09-09T05:00:08;16.70;99.90
23124;DHT22;11731;48.592;8.858;2022-09-09T05:02:37;16.60;99.90
23124;DHT22;11731;48.592;8.858;2022-09-09T05:05:04;16.90;99.90
23124;DHT22;11731;48.592;8.858;2022-09-09T05:07:31;17.10;99.90
23124;DHT22;11731;48.592;8.858;2022-09-09T05:09:58;17.20;99.90
23124;DHT22;11731;48.592;8.858;2022-09-09T05:12:25;17.30;99.90
23124;DHT22;11731;48.592;8.858;2022-09-09T05:14:52;17.10;99.90
23124;DHT22;11731;48.592;8.858;2022-09-09T05:17:20;16.60;99.90
23124;DHT22;11731;48.592;8.858;2022-09-09T05:19:47;15.90;99.90
23124;DHT22;11731;48.592;8.858;2022-09-09T05:22:18;15.70;99.90
23124;DHT22;11731;48.592;8.858;2022-09-09T05:24:45;15.80;99.90
23124;DHT22;11731;48.592;8.858;2022-09-09T05:27:12;15.80;99.90
23124;DHT22;11731;48.592;8.858;2022-09-09T05:29:39;16.30;99.90
23124;DHT22;11731;48.592;8.858;2022-09-09T05:32:08;16.40;99.90
23124;DHT22;11731;48.592;8.858;2022-09-09T05:34:38;16.60;99.90
23124;DHT22;11731;48.592;8.858;2022-09-09T05:37:05;16.90;99.90
23124;DHT22;11731;48.592;8.858;2022-09-09T05:39:33;17.10;99.90
23124;DHT22;11731;48.592;8.858;2022-09-09T05:42:01;17.30;99.90
23124;DHT22;11731;48.592;8.858;2022-09-09T05:44:30;17.50;99.90
23124;DHT22;11731;48.592;8.858;2022-09-09T05:46:57;17.50;99.90
23124;DHT22;11731;48.592;8.858;2022-09-09T05:49:24;17.60;99.90
23124;DHT22;11731;48.592;8.858;2022-09-09T05:51:52;17.70;99.90
23124;DHT22;11731;48.592;8.858;2022-09-09T05:54:19;17.80;99.90
23124;DHT22;11731;48.592;8.858;2022-09-09T05:56:46;17.90;99.90
23124;DHT22;11731;48.592;8.858;2022-09-09T05:59:16;17.90;99.90
23124;DHT22;11731;48.592;8.858;2022-09-09T06:01:43;18.10;99.90
23124;DHT22;11731;48.592;8.858;2022-09-09T06:04:10;17.90;99.90
23124;DHT22;11731;48.592;8.858;2022-09-09T06:06:38;17.60;99.90
23124;DHT22;11731;48.592;8.858;2022-09-09T06:09:08;17.50;99.90
23124;DHT22;11731;48.592;8.858;2022-09-09T06:11:38;17.20;99.90
23124;DHT22;11731;48.592;8.858;2022-09-09T06:14:05;17.10;99.90
23124;DHT22;11731;48.592;8.858;2022-09-09T06:16:33;16.90;99.90
23124;DHT22;11731;48.592;8.858;2022-09-09T06:19:00;16.80;99.90
23124;DHT22;11731;48.592;8.858;2022-09-09T06:21:29;17.00;99.90
23124;DHT22;11731;48.592;8.858;2022-09-09T06:23:56;17.40;99.90
23124;DHT22;11731;48.592;8.858;2022-09-09T06:26:26;17.70;99.90
23124;DHT22;11731;48.592;8.858;2022-09-09T06:28:54;17.80;99.90
23124;DHT22;11731;48.592;8.858;2022-09-09T06:31:24;18.00;99.90
23124;DHT22;11731;48.592;8.858;2022-09-09T06:33:53;17.80;99.90
23124;DHT22;11731;48.592;8.858;2022-09-09T06:36:22;17.90;99.90
23124;DHT22;11731;48.592;8.858;2022-09-09T06:38:49;18.10;99.90
23124;DHT22;11731;48.592;8.858;2022-09-09T06:41:17;18.10;99.90
23124;DHT22;11731;48.592;8.858;2022-09-09T06:43:46;18.10;99.90
23124;DHT22;11731;48.592;8.858;2022-09-09T06:46:15;18.00;99.90
23124;DHT22;11731;48.592;8.858;2022-09-09T06:48:43;18.10;99.90
23124;DHT22;11731;48.592;8.858;2022-09-09T06:51:12;18.20;99.90
23124;DHT22;11731;48.592;8.858;2022-09-09T06:53:40;18.30;99.90
23124;DHT22;11731;48.592;8.858;2022-09-09T06:56:18;18.20;99.90
23124;DHT22;11731;48.592;8.858;2022-09-09T06:58:47;18.00;99.90
23124;DHT22;11731;48.592;8.858;2022-09-09T07:01:16;17.80;99.90
23124;DHT22;11731;48.592;8.858;2022-09-09T07:03:45;17.70;99.90
23124;DHT22;11731;48.592;8.858;2022-09-09T07:06:15;17.50;99.90
23124;DHT22;11731;48.592;8.858;2022-09-09T07:08:43;17.80;99.90
23124;DHT22;11731;48.592;8.858;2022-09-09T07:11:10;17.50;99.90
23124;DHT22;11731;48.592;8.858;2022-09-09T07:13:37;17.60;99.90
23124;DHT22;11731;48.592;8.858;2022-09-09T07:16:07;17.90;99.90
23124;DHT22;11731;48.592;8.858;2022-09-09T07:18:34;18.20;99.90
23124;DHT22;11731;48.592;8.858;2022-09-09T07:21:02;18.30;99.90
23124;DHT22;11731;48.592;8.858;2022-09-09T07:23:29;17.90;99.90
23124;DHT22;11731;48.592;8.858;2022-09-09T07:25:57;18.20;99.90
23124;DHT22;11731;48.592;8.858;2022-09-09T07:28:24;18.60;99.90
23124;DHT22;11731;48.592;8.858;2022-09-09T07:30:55;18.80;99.90
23124;DHT22;11731;48.592;8.858;2022-09-09T07:33:24;19.10;99.90
23124;DHT22;11731;48.592;8.858;2022-09-09T07:35:52;19.20;99.90
23124;DHT22;11731;48.592;8.858;2022-09-09T07:38:19;19.30;99.90
23124;DHT22;11731;48.592;8.858;2022-09-09T07:40:47;19.70;99.90
23124;DHT22;11731;48.592;8.858;2022-09-09T07:43:14;19.50;99.90
23124;DHT22;11731;48.592;8.858;2022-09-09T07:45:44;19.50;99.90
23124;DHT22;11731;48.592;8.858;2022-09-09T07:48:11;20.00;99.90
23124;DHT22;11731;48.592;8.858;2022-09-09T07:50:39;20.30;99.90
23124;DHT22;11731;48.592;8.858;2022-09-09T07:53:06;20.50;99.90
23124;DHT22;11731;48.592;8.858;2022-09-09T07:55:33;20.50;99.90
23124;DHT22;11731;48.592;8.858;2022-09-09T07:58:00;21.00;99.90
23124;DHT22;11731;48.592;8.858;2022-09-09T08:00:26;21.20;99.90
23124;DHT22;11731;48.592;8.858;2022-09-09T08:02:54;21.30;99.90
23124;DHT22;11731;48.592;8.858;2022-09-09T08:05:20;21.20;99.90
23124;DHT22;11731;48.592;8.858;2022-09-09T08:07:49;21.10;99.90
23124;DHT22;11731;48.592;8.858;2022-09-09T08:10:16;21.20;99.90
23124;DHT22;11731;48.592;8.858;2022-09-09T08:12:44;21.20;99.90
23124;DHT22;11731;48.592;8.858;2022-09-09T08:15:11;21.00;99.90
23124;DHT22;11731;48.592;8.858;2022-09-09T08:17:38;20.90;99.90
23124;DHT22;11731;48.592;8.858;2022-09-09T08:20:05;20.60;99.90
23124;DHT22;11731;48.592;8.858;2022-09-09T08:22:32;20.40;99.90
23124;DHT22;11731;48.592;8.858;2022-09-09T08:25:01;20.70;99.90
23124;DHT22;11731;48.592;8.858;2022-09-09T08:27:30;20.60;99.90
23124;DHT22;11731;48.592;8.858;2022-09-09T08:29:57;20.50;99.90
23124;DHT22;11731;48.592;8.858;2022-09-09T08:32:24;20.20;99.90
23124;DHT22;11731;48.592;8.858;2022-09-09T08:34:51;19.50;99.90
23124;DHT22;11731;48.592;8.858;2022-09-09T08:37:18;19.80;99.90
23124;DHT22;11731;48.592;8.858;2022-09-09T08:39:45;20.00;99.90
23124;DHT22;11731;48.592;8.858;2022-09-09T08:42:31;20.30;99.90
23124;DHT22;11731;48.592;8.858;2022-09-09T08:45:33;20.20;99.90
23124;DHT22;11731;48.592;8.858;2022-09-09T08:48:10;19.70;99.90
23124;DHT22;11731;48.592;8.858;2022-09-09T08:50:39;19.70;99.90
23124;DHT22;11731;48.592;8.858;2022-09-09T08:53:12;19.70;99.90
23124;DHT22;11731;48.592;8.858;2022-09-09T08:55:44;19.50;99.90
23124;DHT22;11731;48.592;8.858;2022-09-09T08:58:16;19.30;99.90
23124;DHT22;11731;48.592;8.858;2022-09-09T09:00:57;19.30;99.90
23124;DHT22;11731;48.592;8.858;2022-09-09T09:03:35;19.30;99.90
23124;DHT22;11731;48.592;8.858;2022-09-09T09:06:09;19.50;99.90
23124;DHT22;11731;48.592;8.858;2022-09-09T09:08:45;19.90;99.90
23124;DHT22;11731;48.592;8.858;2022-09-09T09:11:15;20.00;99.90
23124;DHT22;11731;48.592;8.858;2022-09-09T09:13:46;20.00;99.90
23124;DHT22;11731;48.592;8.858;2022-09-09T09:16:22;19.70;99.90
23124;DHT22;11731;48.592;8.858;2022-09-09T09:18:50;19.50;99.90
23124;DHT22;11731;48.592;8.858;2022-09-09T09:21:21;19.40;99.90
23124;DHT22;11731;48.592;8.858;2022-09-09T09:23:56;19.60;99.90
23124;DHT22;11731;48.592;8.858;2022-09-09T09:26:25;19.90;99.90
23124;DHT22;11731;48.592;8.858;2022-09-09T09:28:56;20.20;99.90
23124;DHT22;11731;48.592;8.858;2022-09-09T09:31:23;20.00;99.90
23124;DHT22;11731;48.592;8.858;2022-09-09T09:33:54;19.90;99.90
23124;DHT22;11731;48.592;8.858;2022-09-09T09:36:24;20.00;99.90
23124;DHT22;11731;48.592;8.858;2022-09-09T09:38:54;19.70;99.90
23124;DHT22;11731;48.592;8.858;2022-09-09T09:41:33;19.80;99.90
23124;DHT22;11731;48.592;8.858;2022-09-09T09:44:03;20.10;99.90
23124;DHT22;11731;48.592;8.858;2022-09-09T09:46:30;20.20;99.90
23124;DHT22;11731;48.592;8.858;2022-09-09T09:48:58;20.10;99.90
23124;DHT22;11731;48.592;8.858;2022-09-09T09:51:26;20.30;99.90
23124;DHT22;11731;48.592;8.858;2022-09-09T09:53:54;20.50;99.90
23124;DHT22;11731;48.592;8.858;2022-09-09T09:56:31;20.80;99.90
23124;DHT22;11731;48.592;8.858;2022-09-09T09:58:59;20.80;99.90
23124;DHT22;11731;48.592;8.858;2022-09-09T10:01:28;20.70;99.90
23124;DHT22;11731;48.592;8.858;2022-09-09T10:03:59;20.90;99.90
23124;DHT22;11731;48.592;8.858;2022-09-09T10:06:31;21.30;99.90
23124;DHT22;11731;48.592;8.858;2022-09-09T10:08:59;21.20;99.90
23124;DHT22;11731;48.592;8.858;2022-09-09T10:11:35;21.20;99.90
23124;DHT22;11731;48.592;8.858;2022-09-09T10:14:16;21.10;99.90
23124;DHT22;11731;48.592;8.858;2022-09-09T10:16:57;21.40;99.90
23124;DHT22;11731;48.592;8.858;2022-09-09T10:19:30;21.50;99.90
23124;DHT22;11731;48.592;8.858;2022-09-09T10:22:15;21.50;99.90
23124;DHT22;11731;48.592;8.858;2022-09-09T10:25:11;21.30;99.90
23124;DHT22;11731;48.592;8.858;2022-09-09T10:27:50;21.40;99.90
23124;DHT22;11731;48.592;8.858;2022-09-09T10:30:22;21.50;99.90
23124;DHT22;11731;48.592;8.858;2022-09-09T10:33:00;21.00;99.90
23124;DHT22;11731;48.592;8.858;2022-09-09T10:35:31;20.80;99.90
23124;DHT22;11731;48.592;8.858;2022-09-09T10:38:17;20.80;99.30
23124;DHT22;11731;48.592;8.858;2022-09-09T10:41:15;20.60;99.90
23124;DHT22;11731;48.592;8.858;2022-09-09T10:44:00;20.60;99.90
23124;DHT22;11731;48.592;8.858;2022-09-09T10:46:39;20.50;99.90
23124;DHT22;11731;48.592;8.858;2022-09-09T10:49:19;20.40;99.40
23124;DHT22;11731;48.592;8.858;2022-09-09T10:51:54;20.10;99.90
23124;DHT22;11731;48.592;8.858;2022-09-09T10:54:33;19.70;99.90
23124;DHT22;11731;48.592;8.858;2022-09-09T10:57:08;19.20;99.90
23124;DHT22;11731;48.592;8.858;2022-09-09T10:59:42;18.80;99.90
23124;DHT22;11731;48.592;8.858;2022-09-09T11:02:15;18.40;99.90
23124;DHT22;11731;48.592;8.858;2022-09-09T11:04:50;17.80;99.90
23124;DHT22;11731;48.592;8.858;2022-09-09T11:07:24;17.50;99.90
23124;DHT22;11731;48.592;8.858;2022-09-09T11:09:56;17.20;99.90
23124;DHT22;11731;48.592;8.858;2022-09-09T11:12:25;17.00;99.90
23124;DHT22;11731;48.592;8.858;2022-09-09T11:14:59;16.90;99.90
23124;DHT22;11731;48.592;8.858;2022-09-09T11:17:35;16.90;99.90
23124;DHT22;11731;48.592;8.858;2022-09-09T11:20:06;17.20;99.90
23124;DHT22;11731;48.592;8.858;2022-09-09T11:22:39;17.70;99.90
23124;DHT22;11731;48.592;8.858;2022-09-09T11:25:15;17.50;99.90
23124;DHT22;11731;48.592;8.858;2022-09-09T11:27:50;17.40;99.90
23124;DHT22;11731;48.592;8.858;2022-09-09T11:30:21;17.70;99.90
23124;DHT22;11731;48.592;8.858;2022-09-09T11:36:09;18.10;99.90
23124;DHT22;11731;48.592;8.858;2022-09-09T11:38:45;18.50;99.90
23124;DHT22;11731;48.592;8.858;2022-09-09T11:41:13;18.50;99.90
23124;DHT22;11731;48.592;8.858;2022-09-09T11:43:42;18.50;99.90
23124;DHT22;11731;48.592;8.858;2022-09-09T11:46:10;18.40;99.90
23124;DHT22;11731;48.592;8.858;2022-09-09T11:48:40;18.30;99.90
23124;DHT22;11731;48.592;8.858;2022-09-09T11:51:12;18.50;99.90
23124;DHT22;11731;48.592;8.858;2022-09-09T11:53:50;18.90;99.90
23124;DHT22;11731;48.592;8.858;2022-09-09T11:56:28;19.00;99.90
23124;DHT22;11731;48.592;8.858;2022-09-09T11:59:01;19.30;99.90
23124;DHT22;11731;48.592;8.858;2022-09-09T12:01:37;19.40;99.90
23124;DHT22;11731;48.592;8.858;2022-09-09T12:04:28;19.40;99.90
23124;DHT22;11731;48.592;8.858;2022-09-09T12:07:00;19.70;99.90
23124;DHT22;11731;48.592;8.858;2022-09-09T12:09:38;19.50;99.90
23124;DHT22;11731;48.592;8.858;2022-09-09T12:12:20;19.80;99.90
23124;DHT22;11731;48.592;8.858;2022-09-09T12:14:57;19.90;99.90
23124;DHT22;11731;48.592;8.858;2022-09-09T12:17:26;19.50;99.90
23124;DHT22;11731;48.592;8.858;2022-09-09T12:20:02;19.60;99.90
23124;DHT22;11731;48.592;8.858;2022-09-09T12:22:40;19.80;99.90
23124;DHT22;11731;48.592;8.858;2022-09-09T12:25:18;19.80;99.90
23124;DHT22;11731;48.592;8.858;2022-09-09T12:27:59;19.50;99.90
23124;DHT22;11731;48.592;8.858;2022-09-09T12:30:31;19.40;99.90
23124;DHT22;11731;48.592;8.858;2022-09-09T12:33:01;19.60;99.90
23124;DHT22;11731;48.592;8.858;2022-09-09T12:35:29;19.60;99.90
23124;DHT22;11731;48.592;8.858;2022-09-09T12:37:59;19.60;99.90
23124;DHT22;11731;48.592;8.858;2022-09-09T12:40:28;19.70;99.90
23124;DHT22;11731;48.592;8.858;2022-09-09T12:42:57;19.90;99.40
23124;DHT22;11731;48.592;8.858;2022-09-09T12:45:29;19.60;99.30
23124;DHT22;11731;48.592;8.858;2022-09-09T12:47:59;19.70;99.90
23124;DHT22;11731;48.592;8.858;2022-09-09T12:50:29;20.10;99.60
23124;DHT22;11731;48.592;8.858;2022-09-09T12:53:00;20.20;97.90
23124;DHT22;11731;48.592;8.858;2022-09-09T12:55:30;20.10;98.30
23124;DHT22;11731;48.592;8.858;2022-09-09T12:57:59;20.20;98.20
23124;DHT22;11731;48.592;8.858;2022-09-09T13:00:30;20.40;98.50
23124;DHT22;11731;48.592;8.858;2022-09-09T13:02:58;20.50;98.10
23124;DHT22;11731;48.592;8.858;2022-09-09T13:05:28;20.40;97.10
23124;DHT22;11731;48.592;8.858;2022-09-09T13:08:03;20.20;97.30
23124;DHT22;11731;48.592;8.858;2022-09-09T13:10:32;20.10;98.00
23124;DHT22;11731;48.592;8.858;2022-09-09T13:13:00;20.10;97.30
23124;DHT22;11731;48.592;8.858;2022-09-09T13:15:29;19.80;97.60
23124;DHT22;11731;48.592;8.858;2022-09-09T13:17:57;19.90;96.90
23124;DHT22;11731;48.592;8.858;2022-09-09T13:20:26;20.10;96.80
23124;DHT22;11731;48.592;8.858;2022-09-09T13:22:55;20.60;96.60
23124;DHT22;11731;48.592;8.858;2022-09-09T13:25:26;20.40;96.30
23124;DHT22;11731;48.592;8.858;2022-09-09T13:28:02;20.40;97.50
23124;DHT22;11731;48.592;8.858;2022-09-09T13:30:31;20.50;96.20
23124;DHT22;11731;48.592;8.858;2022-09-09T13:33:22;20.40;95.80
23124;DHT22;11731;48.592;8.858;2022-09-09T13:35:51;20.40;96.10
23124;DHT22;11731;48.592;8.858;2022-09-09T13:38:20;20.40;95.00
23124;DHT22;11731;48.592;8.858;2022-09-09T13:40:57;20.50;94.90
23124;DHT22;11731;48.592;8.858;2022-09-09T13:43:25;21.00;94.50
23124;DHT22;11731;48.592;8.858;2022-09-09T13:45:54;21.10;94.20
23124;DHT22;11731;48.592;8.858;2022-09-09T13:48:22;21.40;93.80
23124;DHT22;11731;48.592;8.858;2022-09-09T13:50:55;21.40;93.30
23124;DHT22;11731;48.592;8.858;2022-09-09T13:53:22;21.40;94.00
23124;DHT22;11731;48.592;8.858;2022-09-09T13:55:49;21.60;93.10
23124;DHT22;11731;48.592;8.858;2022-09-09T13:58:18;21.50;93.00
23124;DHT22;11731;48.592;8.858;2022-09-09T14:00:45;21.20;91.60
23124;DHT22;11731;48.592;8.858;2022-09-09T14:03:12;21.10;91.50
23124;DHT22;11731;48.592;8.858;2022-09-09T14:05:40;21.20;92.40
23124;DHT22;11731;48.592;8.858;2022-09-09T14:08:15;21.40;90.90
23124;DHT22;11731;48.592;8.858;2022-09-09T14:10:42;21.40;91.70
23124;DHT22;11731;48.592;8.858;2022-09-09T14:13:09;21.40;90.70
23124;DHT22;11731;48.592;8.858;2022-09-09T14:15:38;21.40;90.30
23124;DHT22;11731;48.592;8.858;2022-09-09T14:18:05;21.70;90.80
23124;DHT22;11731;48.592;8.858;2022-09-09T14:20:32;21.60;89.90
23124;DHT22;11731;48.592;8.858;2022-09-09T14:22:59;21.30;90.70
23124;DHT22;11731;48.592;8.858;2022-09-09T14:25:26;21.20;90.80
23124;DHT22;11731;48.592;8.858;2022-09-09T14:27:54;21.40;90.80
23124;DHT22;11731;48.592;8.858;2022-09-09T14:30:21;21.50;90.90
23124;DHT22;11731;48.592;8.858;2022-09-09T14:32:49;21.80;90.40
23124;DHT22;11731;48.592;8.858;2022-09-09T14:35:16;21.90;91.50
23124;DHT22;11731;48.592;8.858;2022-09-09T14:37:43;21.80;91.20
23124;DHT22;11731;48.592;8.858;2022-09-09T14:40:10;21.80;91.40
23124;DHT22;11731;48.592;8.858;2022-09-09T14:42:37;21.80;91.90
23124;DHT22;11731;48.592;8.858;2022-09-09T14:45:06;21.90;92.20
23124;DHT22;11731;48.592;8.858;2022-09-09T14:47:33;21.80;92.10
23124;DHT22;11731;48.592;8.858;2022-09-09T14:50:01;22.10;92.00
23124;DHT22;11731;48.592;8.858;2022-09-09T14:52:30;22.00;92.00
23124;DHT22;11731;48.592;8.858;2022-09-09T14:54:57;21.90;91.90
23124;DHT22;11731;48.592;8.858;2022-09-09T14:57:24;21.90;92.30
23124;DHT22;11731;48.592;8.858;2022-09-09T14:59:51;22.10;92.00
23124;DHT22;11731;48.592;8.858;2022-09-09T15:02:18;22.20;91.30
23124;DHT22;11731;48.592;8.858;2022-09-09T15:04:45;22.40;91.10
23124;DHT22;11731;48.592;8.858;2022-09-09T15:07:14;22.50;90.20
23124;DHT22;11731;48.592;8.858;2022-09-09T15:09:41;22.30;89.70
23124;DHT22;11731;48.592;8.858;2022-09-09T15:12:08;22.40;89.70
23124;DHT22;11731;48.592;8.858;2022-09-09T15:14:35;22.40;88.30
23124;DHT22;11731;48.592;8.858;2022-09-09T15:17:02;22.50;88.70
23124;DHT22;11731;48.592;8.858;2022-09-09T15:19:29;22.30;88.60
23124;DHT22;11731;48.592;8.858;2022-09-09T15:21:56;22.10;90.10
23124;DHT22;11731;48.592;8.858;2022-09-09T15:24:24;22.00;89.70
23124;DHT22;11731;48.592;8.858;2022-09-09T15:26:51;21.70;90.00
23124;DHT22;11731;48.592;8.858;2022-09-09T15:29:19;21.60;90.60
23124;DHT22;11731;48.592;8.858;2022-09-09T15:31:46;21.40;91.00
23124;DHT22;11731;48.592;8.858;2022-09-09T15:34:13;21.10;91.10
23124;DHT22;11731;48.592;8.858;2022-09-09T15:36:41;21.00;91.50
23124;DHT22;11731;48.592;8.858;2022-09-09T15:39:10;21.10;91.50
23124;DHT22;11731;48.592;8.858;2022-09-09T15:41:39;21.10;92.00
23124;DHT22;11731;48.592;8.858;2022-09-09T15:44:07;21.50;91.80
23124;DHT22;11731;48.592;8.858;2022-09-09T15:46:37;21.30;90.60
23124;DHT22;11731;48.592;8.858;2022-09-09T15:49:06;21.00;90.20
23124;DHT22;11731;48.592;8.858;2022-09-09T15:51:35;20.80;90.70
23124;DHT22;11731;48.592;8.858;2022-09-09T15:54:03;21.00;90.90